sensor_id;sensor_type;location;lat;lon;timestamp;pressure;altitude;pressure_sealevel;temperature;humidity
70314;BME280;57725;47.526;18.986;2023-02-28T00:00:21;100890.38;;;6.52;96.23
70314;BME280;57725;47.526;18.986;2023-02-28T00:02:47;100888.66;;;6.51;96.29
70314;BME280;57725;47.526;18.986;2023-02-28T00:05:15;100893.00;;;6.50;96.40
70314;BME280;57725;47.526;18.986;2023-02-28T00:07:41;100902.50;;;6.51;96.50
70314;BME280;57725;47.526;18.986;2023-02-28T00:10:10;100898.19;;;6.50;96.42
70314;BME280;57725;47.526;18.986;2023-02-28T00:12:36;100901.66;;;6.48;95.95
70314;BME280;57725;47.526;18.986;2023-02-28T00:15:07;100907.72;;;6.50;95.79
70314;BME280;57725;47.526;18.986;2023-02-28T00:17:34;100912.91;;;6.50;96.20
70314;BME280;57725;47.526;18.986;2023-02-28T00:20:07;100913.78;;;6.49;96.62
70314;BME280;57725;47.526;18.986;2023-02-28T00:22:34;100915.53;;;6.47;96.36
70314;BME280;57725;47.526;18.986;2023-02-28T00:24:59;100912.06;;;6.46;96.20
70314;BME280;57725;47.526;18.986;2023-02-28T00:27:25;100907.72;;;6.48;96.07
70314;BME280;57725;47.526;18.986;2023-02-28T00:29:50;100914.66;;;6.46;96.15
70314;BME280;57725;47.526;18.986;2023-02-28T00:32:16;100917.25;;;6.46;96.41
70314;BME280;57725;47.526;18.986;2023-02-28T00:34:41;100923.31;;;6.47;96.30
70314;BME280;57725;47.526;18.986;2023-02-28T00:37:10;100915.53;;;6.47;96.12
70314;BME280;57725;47.526;18.986;2023-02-28T00:39:37;100922.47;;;6.46;96.59
70314;BME280;57725;47.526;18.986;2023-02-28T00:42:03;100926.81;;;6.46;96.13
70314;BME280;57725;47.526;18.986;2023-02-28T00:44:29;100925.97;;;6.45;96.17
70314;BME280;57725;47.526;18.986;2023-02-28T00:46:55;100930.31;;;6.45;96.17
70314;BME280;57725;47.526;18.986;2023-02-28T00:49:21;100917.31;;;6.45;96.54
70314;BME280;57725;47.526;18.986;2023-02-28T00:51:47;100929.44;;;6.44;96.53
70314;BME280;57725;47.526;18.986;2023-02-28T00:54:16;100923.38;;;6.44;96.54
70314;BME280;57725;47.526;18.986;2023-02-28T00:56:42;100930.31;;;6.43;96.41
70314;BME280;57725;47.526;18.986;2023-02-28T00:59:07;100927.72;;;6.43;96.20
70314;BME280;57725;47.526;18.986;2023-02-28T01:01:36;100925.13;;;6.42;96.66
70314;BME280;57725;47.526;18.986;2023-02-28T01:04:01;100927.72;;;6.42;96.00
70314;BME280;57725;47.526;18.986;2023-02-28T01:06:26;100932.91;;;6.42;96.47
70314;BME280;57725;47.526;18.986;2023-02-28T01:08:52;100932.06;;;6.41;96.36
70314;BME280;57725;47.526;18.986;2023-02-28T01:11:18;100928.59;;;6.41;96.37
70314;BME280;57725;47.526;18.986;2023-02-28T01:13:46;100927.75;;;6.39;96.34
70314;BME280;57725;47.526;18.986;2023-02-28T01:16:14;100927.75;;;6.39;96.45
70314;BME280;57725;47.526;18.986;2023-02-28T01:18:40;100932.06;;;6.40;96.60
70314;BME280;57725;47.526;18.986;2023-02-28T01:21:07;100938.13;;;6.39;96.60
70314;BME280;57725;47.526;18.986;2023-02-28T01:23:36;100932.06;;;6.38;96.33
70314;BME280;57725;47.526;18.986;2023-02-28T01:26:19;100932.94;;;6.37;96.83
70314;BME280;57725;47.526;18.986;2023-02-28T01:28:45;100925.16;;;6.37;96.39
70314;BME280;57725;47.526;18.986;2023-02-28T01:31:16;100927.75;;;6.37;96.60
70314;BME280;57725;47.526;18.986;2023-02-28T01:33:45;100927.75;;;6.37;96.30
70314;BME280;57725;47.526;18.986;2023-02-28T01:36:18;100926.00;;;6.38;96.52
70314;BME280;57725;47.526;18.986;2023-02-28T01:38:45;100926.03;;;6.36;96.33
70314;BME280;57725;47.526;18.986;2023-02-28T01:41:22;100929.47;;;6.37;96.13
70314;BME280;57725;47.526;18.986;2023-02-28T01:46:56;100922.56;;;6.36;96.59
70314;BME280;57725;47.526;18.986;2023-02-28T01:49:21;100927.81;;;6.34;96.83
70314;BME280;57725;47.526;18.986;2023-02-28T01:51:50;100919.16;;;6.32;96.62
70314;BME280;57725;47.526;18.986;2023-02-28T01:54:22;100915.69;;;6.33;96.45
70314;BME280;57725;47.526;18.986;2023-02-28T01:57:15;100930.41;;;6.33;96.75
70314;BME280;57725;47.526;18.986;2023-02-28T02:00:02;100925.22;;;6.31;96.83
70314;BME280;57725;47.526;18.986;2023-02-28T02:02:36;100920.88;;;6.32;96.20
70314;BME280;57725;47.526;18.986;2023-02-28T02:05:08;100923.50;;;6.32;96.71
70314;BME280;57725;47.526;18.986;2023-02-28T02:07:39;100919.16;;;6.31;96.76
70314;BME280;57725;47.526;18.986;2023-02-28T02:13:05;100912.22;;;6.31;96.46
70314;BME280;57725;47.526;18.986;2023-02-28T02:17:58;100920.03;;;6.31;96.54
70314;BME280;57725;47.526;18.986;2023-02-28T02:27:16;100913.97;;;6.29;96.40
70314;BME280;57725;47.526;18.986;2023-02-28T02:45:09;100912.28;;;6.25;96.42
70314;BME280;57725;47.526;18.986;2023-02-28T02:47:37;100917.47;;;6.27;96.54
70314;BME280;57725;47.526;18.986;2023-02-28T02:50:08;100922.66;;;6.25;96.20
70314;BME280;57725;47.526;18.986;2023-02-28T02:52:42;100920.94;;;6.26;96.42
70314;BME280;57725;47.526;18.986;2023-02-28T02:55:11;100922.66;;;6.25;96.19
70314;BME280;57725;47.526;18.986;2023-02-28T02:57:52;100922.66;;;6.25;96.68
70314;BME280;57725;47.526;18.986;2023-02-28T03:00:21;100919.19;;;6.25;96.37
70314;BME280;57725;47.526;18.986;2023-02-28T03:02:51;100920.06;;;6.25;96.34
70314;BME280;57725;47.526;18.986;2023-02-28T03:05:21;100924.41;;;6.25;96.25
70314;BME280;57725;47.526;18.986;2023-02-28T03:07:51;100920.13;;;6.21;96.30
70314;BME280;57725;47.526;18.986;2023-02-28T03:24:03;100928.78;;;6.21;96.40
70314;BME280;57725;47.526;18.986;2023-02-28T03:26:31;100934.84;;;6.22;96.72
70314;BME280;57725;47.526;18.986;2023-02-28T03:29:08;100926.19;;;6.21;96.79
70314;BME280;57725;47.526;18.986;2023-02-28T03:31:48;100934.84;;;6.20;96.29
70314;BME280;57725;47.526;18.986;2023-02-28T03:34:24;100929.66;;;6.20;96.41
70314;BME280;57725;47.526;18.986;2023-02-28T03:37:11;100922.72;;;6.19;96.35
70314;BME280;57725;47.526;18.986;2023-02-28T03:39:43;100922.75;;;6.17;96.57
70314;BME280;57725;47.526;18.986;2023-02-28T03:42:14;100925.34;;;6.16;96.51
70314;BME280;57725;47.526;18.986;2023-02-28T03:47:45;100927.06;;;6.18;96.61
70314;BME280;57725;47.526;18.986;2023-02-28T03:55:48;100934.00;;;6.16;96.79
70314;BME280;57725;47.526;18.986;2023-02-28T04:00:58;100930.53;;;6.16;96.97
70314;BME280;57725;47.526;18.986;2023-02-28T04:03:24;100927.06;;;6.15;96.55
70314;BME280;57725;47.526;18.986;2023-02-28T04:05:52;100928.81;;;6.15;96.81
70314;BME280;57725;47.526;18.986;2023-02-28T04:08:18;100932.28;;;6.15;96.31
70314;BME280;57725;47.526;18.986;2023-02-28T04:10:48;100921.88;;;6.15;96.33
70314;BME280;57725;47.526;18.986;2023-02-28T04:13:16;100927.06;;;6.15;96.57
70314;BME280;57725;47.526;18.986;2023-02-28T04:15:43;100920.16;;;6.14;96.66
70314;BME280;57725;47.526;18.986;2023-02-28T04:18:09;100921.88;;;6.14;96.95
70314;BME280;57725;47.526;18.986;2023-02-28T04:20:37;100929.66;;;6.15;96.35
70314;BME280;57725;47.526;18.986;2023-02-28T04:23:02;100921.03;;;6.13;96.38
70314;BME280;57725;47.526;18.986;2023-02-28T04:25:28;100914.97;;;6.13;96.14
70314;BME280;57725;47.526;18.986;2023-02-28T04:28:02;100916.69;;;6.14;96.40
70314;BME280;57725;47.526;18.986;2023-02-28T04:30:27;100918.44;;;6.13;96.88
70314;BME280;57725;47.526;18.986;2023-02-28T04:32:54;100914.97;;;6.13;96.34
70314;BME280;57725;47.526;18.986;2023-02-28T04:35:23;100917.56;;;6.13;96.40
70314;BME280;57725;47.526;18.986;2023-02-28T04:37:48;100914.09;;;6.12;96.72
70314;BME280;57725;47.526;18.986;2023-02-28T04:40:20;100923.63;;;6.12;96.34
70314;BME280;57725;47.526;18.986;2023-02-28T04:42:45;100913.25;;;6.12;96.54
70314;BME280;57725;47.526;18.986;2023-02-28T04:45:11;100909.78;;;6.13;96.07
70314;BME280;57725;47.526;18.986;2023-02-28T04:47:38;100913.28;;;6.10;96.80
70314;BME280;57725;47.526;18.986;2023-02-28T04:50:04;100914.16;;;6.11;96.27
70314;BME280;57725;47.526;18.986;2023-02-28T04:52:30;100915.88;;;6.10;96.27
70314;BME280;57725;47.526;18.986;2023-02-28T04:54:55;100915.03;;;6.10;96.49
70314;BME280;57725;47.526;18.986;2023-02-28T04:57:20;100915.88;;;6.10;96.60
70314;BME280;57725;47.526;18.986;2023-02-28T04:59:46;100909.84;;;6.08;96.56
70314;BME280;57725;47.526;18.986;2023-02-28T05:02:11;100917.63;;;6.10;96.78
70314;BME280;57725;47.526;18.986;2023-02-28T05:04:36;100911.56;;;6.09;96.49
70314;BME280;57725;47.526;18.986;2023-02-28T05:07:03;100921.09;;;6.09;96.45
70314;BME280;57725;47.526;18.986;2023-02-28T05:09:28;100917.63;;;6.10;96.16
70314;BME280;57725;47.526;18.986;2023-02-28T05:11:54;100918.50;;;6.09;96.36
70314;BME280;57725;47.526;18.986;2023-02-28T05:14:20;100918.50;;;6.09;96.72
70314;BME280;57725;47.526;18.986;2023-02-28T05:16:45;100917.63;;;6.08;97.02
70314;BME280;57725;47.526;18.986;2023-02-28T05:19:11;100917.63;;;6.07;96.98
70314;BME280;57725;47.526;18.986;2023-02-28T05:21:39;100924.56;;;6.08;96.66
70314;BME280;57725;47.526;18.986;2023-02-28T05:24:08;100923.69;;;6.07;96.63
70314;BME280;57725;47.526;18.986;2023-02-28T05:26:36;100932.34;;;6.08;96.24
70314;BME280;57725;47.526;18.986;2023-02-28T05:29:06;100927.16;;;6.08;96.53
70314;BME280;57725;47.526;18.986;2023-02-28T05:31:34;100917.63;;;6.05;96.91
70314;BME280;57725;47.526;18.986;2023-02-28T05:34:00;100922.81;;;6.07;96.47
70314;BME280;57725;47.526;18.986;2023-02-28T05:36:25;100934.94;;;6.06;96.29
70314;BME280;57725;47.526;18.986;2023-02-28T05:38:53;100934.94;;;6.05;96.84
70314;BME280;57725;47.526;18.986;2023-02-28T05:41:19;100936.69;;;6.06;96.97
70314;BME280;57725;47.526;18.986;2023-02-28T05:43:45;100934.94;;;6.05;96.17
70314;BME280;57725;47.526;18.986;2023-02-28T05:46:12;100943.59;;;6.05;96.50
70314;BME280;57725;47.526;18.986;2023-02-28T05:48:39;100939.28;;;6.06;96.98
70314;BME280;57725;47.526;18.986;2023-02-28T05:51:06;100946.19;;;6.05;96.08
70314;BME280;57725;47.526;18.986;2023-02-28T05:53:32;100942.75;;;6.05;96.71
70314;BME280;57725;47.526;18.986;2023-02-28T05:55:58;100950.53;;;6.03;96.35
70314;BME280;57725;47.526;18.986;2023-02-28T05:58:23;100952.25;;;6.04;96.37
70314;BME280;57725;47.526;18.986;2023-02-28T06:00:50;100955.72;;;6.02;96.77
70314;BME280;57725;47.526;18.986;2023-02-28T06:03:16;100957.44;;;6.04;96.44
70314;BME280;57725;47.526;18.986;2023-02-28T06:05:41;100958.31;;;6.03;96.41
70314;BME280;57725;47.526;18.986;2023-02-28T06:08:07;100959.19;;;6.02;96.84
70314;BME280;57725;47.526;18.986;2023-02-28T06:10:34;100955.72;;;6.02;96.40
70314;BME280;57725;47.526;18.986;2023-02-28T06:13:01;100956.59;;;6.02;96.63
70314;BME280;57725;47.526;18.986;2023-02-28T06:15:27;100956.59;;;6.02;96.80
70314;BME280;57725;47.526;18.986;2023-02-28T06:17:56;100954.88;;;6.01;96.56
70314;BME280;57725;47.526;18.986;2023-02-28T06:20:22;100952.31;;;6.00;96.27
70314;BME280;57725;47.526;18.986;2023-02-28T06:22:48;100959.19;;;6.02;96.65
70314;BME280;57725;47.526;18.986;2023-02-28T06:25:15;100959.19;;;6.01;96.73
70314;BME280;57725;47.526;18.986;2023-02-28T06:27:41;100967.84;;;6.01;96.74
70314;BME280;57725;47.526;18.986;2023-02-28T06:30:07;100966.16;;;5.99;96.61
70314;BME280;57725;47.526;18.986;2023-02-28T06:32:32;100972.16;;;6.02;96.83
70314;BME280;57725;47.526;18.986;2023-02-28T06:34:58;100968.72;;;6.00;96.72
70314;BME280;57725;47.526;18.986;2023-02-28T06:37:23;100970.44;;;6.01;96.53
70314;BME280;57725;47.526;18.986;2023-02-28T06:39:52;100968.72;;;6.00;96.45
70314;BME280;57725;47.526;18.986;2023-02-28T06:42:17;100967.88;;;6.00;97.23
70314;BME280;57725;47.526;18.986;2023-02-28T06:44:45;100965.28;;;6.00;96.60
70314;BME280;57725;47.526;18.986;2023-02-28T06:47:19;100971.31;;;6.00;97.02
70314;BME280;57725;47.526;18.986;2023-02-28T06:49:45;100971.34;;;5.99;96.61
70314;BME280;57725;47.526;18.986;2023-02-28T06:52:10;100968.72;;;6.00;96.52
70314;BME280;57725;47.526;18.986;2023-02-28T06:54:38;100979.13;;;5.99;96.83
70314;BME280;57725;47.526;18.986;2023-02-28T06:57:04;100978.28;;;6.00;96.35
70314;BME280;57725;47.526;18.986;2023-02-28T06:59:30;100980.88;;;5.98;97.16
70314;BME280;57725;47.526;18.986;2023-02-28T07:01:55;100973.94;;;5.99;96.56
70314;BME280;57725;47.526;18.986;2023-02-28T07:04:21;100978.28;;;5.97;97.06
70314;BME280;57725;47.526;18.986;2023-02-28T07:06:51;100984.31;;;5.99;96.44
70314;BME280;57725;47.526;18.986;2023-02-28T07:09:16;100973.09;;;5.98;96.65
70314;BME280;57725;47.526;18.986;2023-02-28T07:11:42;100980.00;;;5.98;96.68
70314;BME280;57725;47.526;18.986;2023-02-28T07:14:08;100986.06;;;5.97;96.50
70314;BME280;57725;47.526;18.986;2023-02-28T07:16:34;100996.44;;;5.98;96.33
70314;BME280;57725;47.526;18.986;2023-02-28T07:19:00;100991.25;;;5.98;97.05
70314;BME280;57725;47.526;18.986;2023-02-28T07:21:25;101003.38;;;5.98;96.32
70314;BME280;57725;47.526;18.986;2023-02-28T07:23:51;101000.78;;;5.98;96.48
70314;BME280;57725;47.526;18.986;2023-02-28T07:26:18;101005.09;;;5.97;96.75
70314;BME280;57725;47.526;18.986;2023-02-28T07:28:47;101006.84;;;5.97;96.78
70314;BME280;57725;47.526;18.986;2023-02-28T07:31:14;101005.09;;;5.97;97.01
70314;BME280;57725;47.526;18.986;2023-02-28T07:33:40;101004.25;;;5.97;96.67
70314;BME280;57725;47.526;18.986;2023-02-28T07:36:09;101009.44;;;5.97;96.79
70314;BME280;57725;47.526;18.986;2023-02-28T07:38:39;101001.66;;;5.97;96.82
70314;BME280;57725;47.526;18.986;2023-02-28T07:41:04;101009.44;;;5.97;96.55
70314;BME280;57725;47.526;18.986;2023-02-28T07:43:31;101008.56;;;5.96;96.91
70314;BME280;57725;47.526;18.986;2023-02-28T07:46:05;101010.28;;;5.97;97.13
70314;BME280;57725;47.526;18.986;2023-02-28T07:48:33;101008.56;;;5.96;96.88
70314;BME280;57725;47.526;18.986;2023-02-28T07:51:01;101012.88;;;5.97;96.87
70314;BME280;57725;47.526;18.986;2023-02-28T07:53:28;101007.69;;;5.99;96.88
70314;BME280;57725;47.526;18.986;2023-02-28T07:55:58;101008.56;;;5.99;97.06
70314;BME280;57725;47.526;18.986;2023-02-28T07:58:25;100999.91;;;5.97;97.16
70314;BME280;57725;47.526;18.986;2023-02-28T08:00:51;101005.09;;;5.99;97.15
70314;BME280;57725;47.526;18.986;2023-02-28T08:03:20;101008.56;;;5.99;97.33
70314;BME280;57725;47.526;18.986;2023-02-28T08:05:48;101007.69;;;5.99;97.44
70314;BME280;57725;47.526;18.986;2023-02-28T08:08:15;101009.41;;;5.98;97.34
70314;BME280;57725;47.526;18.986;2023-02-28T08:10:41;101007.69;;;5.96;96.75
70314;BME280;57725;47.526;18.986;2023-02-28T08:13:09;101007.69;;;5.96;97.19
70314;BME280;57725;47.526;18.986;2023-02-28T08:15:40;101005.97;;;5.99;97.26
70314;BME280;57725;47.526;18.986;2023-02-28T08:18:06;101003.38;;;5.99;97.37
70314;BME280;57725;47.526;18.986;2023-02-28T08:20:34;101005.97;;;5.99;97.38
70314;BME280;57725;47.526;18.986;2023-02-28T08:23:01;101013.75;;;5.99;97.45
70314;BME280;57725;47.526;18.986;2023-02-28T08:25:29;101006.81;;;5.98;96.89
70314;BME280;57725;47.526;18.986;2023-02-28T08:27:55;101004.22;;;5.98;96.94
70314;BME280;57725;47.526;18.986;2023-02-28T08:30:20;100999.03;;;5.97;96.83
70314;BME280;57725;47.526;18.986;2023-02-28T08:32:45;100998.19;;;5.98;97.05
70314;BME280;57725;47.526;18.986;2023-02-28T08:35:11;100996.44;;;6.00;97.54
70314;BME280;57725;47.526;18.986;2023-02-28T08:37:36;100994.72;;;5.99;97.10
70314;BME280;57725;47.526;18.986;2023-02-28T08:40:02;100994.72;;;5.99;96.86
70314;BME280;57725;47.526;18.986;2023-02-28T08:42:29;100993.84;;;5.98;97.60
70314;BME280;57725;47.526;18.986;2023-02-28T08:44:54;101013.72;;;6.01;97.54
70314;BME280;57725;47.526;18.986;2023-02-28T08:47:20;101000.78;;;5.99;97.12
70314;BME280;57725;47.526;18.986;2023-02-28T08:49:45;101008.56;;;5.99;96.94
70314;BME280;57725;47.526;18.986;2023-02-28T08:52:11;101009.41;;;6.00;97.42
70314;BME280;57725;47.526;18.986;2023-02-28T08:54:36;101009.41;;;6.00;97.10
70314;BME280;57725;47.526;18.986;2023-02-28T08:57:02;101001.63;;;6.00;96.80
70314;BME280;57725;47.526;18.986;2023-02-28T08:59:30;101001.63;;;6.00;97.11
70314;BME280;57725;47.526;18.986;2023-02-28T09:01:55;101005.06;;;6.00;97.34
70314;BME280;57725;47.526;18.986;2023-02-28T09:04:23;101003.31;;;6.01;96.90
70314;BME280;57725;47.526;18.986;2023-02-28T09:06:49;100998.13;;;6.01;96.98
70314;BME280;57725;47.526;18.986;2023-02-28T09:09:15;101007.66;;;6.00;96.97
70314;BME280;57725;47.526;18.986;2023-02-28T09:11:41;101009.41;;;6.00;96.99
70314;BME280;57725;47.526;18.986;2023-02-28T09:14:08;101004.22;;;6.00;96.97
70314;BME280;57725;47.526;18.986;2023-02-28T09:16:46;101005.06;;;6.00;97.49
70314;BME280;57725;47.526;18.986;2023-02-28T09:19:14;101013.72;;;6.02;97.18
70314;BME280;57725;47.526;18.986;2023-02-28T09:21:40;101007.66;;;6.02;96.81
70314;BME280;57725;47.526;18.986;2023-02-28T09:24:08;101001.63;;;6.00;97.42
70314;BME280;57725;47.526;18.986;2023-02-28T09:26:34;101000.72;;;6.02;97.50
70314;BME280;57725;47.526;18.986;2023-02-28T09:29:01;101002.47;;;6.00;97.14
70314;BME280;57725;47.526;18.986;2023-02-28T09:31:30;101007.66;;;6.02;97.15
70314;BME280;57725;47.526;18.986;2023-02-28T09:33:57;101001.59;;;6.03;97.47
70314;BME280;57725;47.526;18.986;2023-02-28T09:36:24;100992.97;;;5.99;97.35
70314;BME280;57725;47.526;18.986;2023-02-28T09:38:53;101002.44;;;6.03;97.26
70314;BME280;57725;47.526;18.986;2023-02-28T09:41:24;101003.31;;;6.04;97.54
70314;BME280;57725;47.526;18.986;2023-02-28T09:43:59;101011.97;;;6.04;97.30
70314;BME280;57725;47.526;18.986;2023-02-28T09:46:40;101013.69;;;6.04;97.66
70314;BME280;57725;47.526;18.986;2023-02-28T09:49:18;101000.72;;;6.02;97.04
70314;BME280;57725;47.526;18.986;2023-02-28T09:54:21;101014.56;;;6.04;97.46
70314;BME280;57725;47.526;18.986;2023-02-28T09:57:01;101001.59;;;6.04;97.42
70314;BME280;57725;47.526;18.986;2023-02-28T10:05:19;100997.25;;;6.06;97.38
70314;BME280;57725;47.526;18.986;2023-02-28T10:10:57;100990.34;;;6.04;97.20
70314;BME280;57725;47.526;18.986;2023-02-28T10:15:54;100989.47;;;6.03;97.35
70314;BME280;57725;47.526;18.986;2023-02-28T10:18:54;101003.31;;;6.07;97.34
70314;BME280;57725;47.526;18.986;2023-02-28T10:21:30;100993.78;;;6.06;97.54
70314;BME280;57725;47.526;18.986;2023-02-28T10:24:35;100992.91;;;6.07;96.75
70314;BME280;57725;47.526;18.986;2023-02-28T10:27:17;100995.50;;;6.08;96.99
70314;BME280;57725;47.526;18.986;2023-02-28T10:29:50;100989.44;;;6.08;97.36
70314;BME280;57725;47.526;18.986;2023-02-28T10:32:21;100980.81;;;6.07;96.92
70314;BME280;57725;47.526;18.986;2023-02-28T10:34:53;100979.06;;;6.08;97.60
70314;BME280;57725;47.526;18.986;2023-02-28T10:37:28;100970.41;;;6.06;97.70
70314;BME280;57725;47.526;18.986;2023-02-28T10:39:54;100973.00;;;6.09;96.85
70314;BME280;57725;47.526;18.986;2023-02-28T10:42:25;100972.13;;;6.10;97.73
70314;BME280;57725;47.526;18.986;2023-02-28T10:45:17;100966.94;;;6.10;97.39
70314;BME280;57725;47.526;18.986;2023-02-28T10:47:58;100961.75;;;6.11;97.45
70314;BME280;57725;47.526;18.986;2023-02-28T10:55:37;100954.78;;;6.12;97.67
70314;BME280;57725;47.526;18.986;2023-02-28T10:58:02;100953.09;;;6.09;97.53
70314;BME280;57725;47.526;18.986;2023-02-28T11:00:39;100953.09;;;6.09;97.00
70314;BME280;57725;47.526;18.986;2023-02-28T11:03:28;100950.50;;;6.08;96.92
70314;BME280;57725;47.526;18.986;2023-02-28T11:05:57;100956.56;;;6.10;97.41
70314;BME280;57725;47.526;18.986;2023-02-28T11:08:23;100953.09;;;6.11;97.63
70314;BME280;57725;47.526;18.986;2023-02-28T11:11:04;100954.78;;;6.12;97.30
70314;BME280;57725;47.526;18.986;2023-02-28T11:13:35;100956.56;;;6.11;97.65
70314;BME280;57725;47.526;18.986;2023-02-28T11:16:04;100957.38;;;6.12;97.72
70314;BME280;57725;47.526;18.986;2023-02-28T11:18:42;100959.09;;;6.13;96.93
70314;BME280;57725;47.526;18.986;2023-02-28T11:21:09;100953.91;;;6.13;97.73
70314;BME280;57725;47.526;18.986;2023-02-28T11:23:43;100952.19;;;6.13;97.03
70314;BME280;57725;47.526;18.986;2023-02-28T11:26:09;100954.78;;;6.13;97.57
70314;BME280;57725;47.526;18.986;2023-02-28T11:28:41;100954.78;;;6.15;97.67
70314;BME280;57725;47.526;18.986;2023-02-28T11:33:51;100950.44;;;6.14;97.60
70314;BME280;57725;47.526;18.986;2023-02-28T11:36:31;100944.38;;;6.15;97.41
70314;BME280;57725;47.526;18.986;2023-02-28T11:39:00;100948.72;;;6.14;97.24
70314;BME280;57725;47.526;18.986;2023-02-28T11:47:18;100944.38;;;6.16;97.64
70314;BME280;57725;47.526;18.986;2023-02-28T11:53:01;100933.97;;;6.18;97.30
70314;BME280;57725;47.526;18.986;2023-02-28T11:55:35;100940.06;;;6.17;97.77
70314;BME280;57725;47.526;18.986;2023-02-28T12:11:40;100923.59;;;6.20;97.30
70314;BME280;57725;47.526;18.986;2023-02-28T12:22:29;100908.00;;;6.21;97.90
70314;BME280;57725;47.526;18.986;2023-02-28T12:27:54;100903.69;;;6.20;97.63
70314;BME280;57725;47.526;18.986;2023-02-28T12:30:25;100895.88;;;6.20;97.78
70314;BME280;57725;47.526;18.986;2023-02-28T12:33:04;100900.19;;;6.23;97.69
70314;BME280;57725;47.526;18.986;2023-02-28T12:35:41;100899.28;;;6.24;97.52
70314;BME280;57725;47.526;18.986;2023-02-28T12:38:31;100893.22;;;6.25;97.61
70314;BME280;57725;47.526;18.986;2023-02-28T12:41:04;100898.44;;;6.23;97.41
70314;BME280;57725;47.526;18.986;2023-02-28T12:43:51;100898.44;;;6.25;97.46
70314;BME280;57725;47.526;18.986;2023-02-28T12:46:24;100900.16;;;6.26;97.91
70314;BME280;57725;47.526;18.986;2023-02-28T12:48:56;100897.53;;;6.27;97.75
70314;BME280;57725;47.526;18.986;2023-02-28T12:51:25;100887.22;;;6.21;97.36
70314;BME280;57725;47.526;18.986;2023-02-28T12:59:21;100885.41;;;6.28;97.50
70314;BME280;57725;47.526;18.986;2023-02-28T13:10:08;100881.09;;;6.30;97.79
70314;BME280;57725;47.526;18.986;2023-02-28T13:12:35;100884.53;;;6.30;97.61
70314;BME280;57725;47.526;18.986;2023-02-28T13:15:24;100881.94;;;6.30;98.01
70314;BME280;57725;47.526;18.986;2023-02-28T13:17:52;100887.13;;;6.32;97.89
70314;BME280;57725;47.526;18.986;2023-02-28T13:20:31;100885.41;;;6.32;97.99
70314;BME280;57725;47.526;18.986;2023-02-28T13:22:59;100872.44;;;6.29;98.04
70314;BME280;57725;47.526;18.986;2023-02-28T13:28:13;100877.59;;;6.32;98.57
70314;BME280;57725;47.526;18.986;2023-02-28T13:35:48;100874.13;;;6.33;98.13
70314;BME280;57725;47.526;18.986;2023-02-28T13:38:25;100866.34;;;6.33;98.34
70314;BME280;57725;47.526;18.986;2023-02-28T13:44:12;100865.44;;;6.36;98.13
70314;BME280;57725;47.526;18.986;2023-02-28T13:49:25;100854.16;;;6.37;98.09
70314;BME280;57725;47.526;18.986;2023-02-28T14:03:49;100848.09;;;6.38;98.09
70314;BME280;57725;47.526;18.986;2023-02-28T14:11:51;100836.84;;;6.39;98.49
70314;BME280;57725;47.526;18.986;2023-02-28T14:17:08;100827.31;;;6.36;98.24
70314;BME280;57725;47.526;18.986;2023-02-28T14:19:44;100837.69;;;6.41;98.48
70314;BME280;57725;47.526;18.986;2023-02-28T14:36:26;100831.59;;;6.43;98.62
70314;BME280;57725;47.526;18.986;2023-02-28T14:38:56;100829.00;;;6.43;98.33
70314;BME280;57725;47.526;18.986;2023-02-28T14:43:56;100822.06;;;6.44;98.55
70314;BME280;57725;47.526;18.986;2023-02-28T14:46:52;100817.75;;;6.44;98.68
70314;BME280;57725;47.526;18.986;2023-02-28T14:49:20;100816.88;;;6.45;98.59
70314;BME280;57725;47.526;18.986;2023-02-28T14:52:22;100822.94;;;6.46;98.19
70314;BME280;57725;47.526;18.986;2023-02-28T14:54:59;100825.53;;;6.44;98.62
70314;BME280;57725;47.526;18.986;2023-02-28T14:57:34;100826.41;;;6.45;98.22
70314;BME280;57725;47.526;18.986;2023-02-28T15:02:43;100825.47;;;6.47;98.92
70314;BME280;57725;47.526;18.986;2023-02-28T15:07:37;100819.41;;;6.47;98.68
70314;BME280;57725;47.526;18.986;2023-02-28T15:12:43;100834.13;;;6.49;98.39
70314;BME280;57725;47.526;18.986;2023-02-28T15:15:18;100828.94;;;6.49;98.47
70314;BME280;57725;47.526;18.986;2023-02-28T15:17:49;100833.25;;;6.50;98.50
70314;BME280;57725;47.526;18.986;2023-02-28T15:20:18;100833.25;;;6.50;98.82
70314;BME280;57725;47.526;18.986;2023-02-28T15:22:51;100829.78;;;6.50;98.14
70314;BME280;57725;47.526;18.986;2023-02-28T15:25:22;100831.50;;;6.51;98.54
70314;BME280;57725;47.526;18.986;2023-02-28T15:27:53;100835.84;;;6.52;98.53
70314;BME280;57725;47.526;18.986;2023-02-28T15:30:25;100827.19;;;6.50;98.59
70314;BME280;57725;47.526;18.986;2023-02-28T15:35:43;100827.16;;;6.53;98.46
70314;BME280;57725;47.526;18.986;2023-02-28T15:38:21;100828.03;;;6.53;98.63
70314;BME280;57725;47.526;18.986;2023-02-28T15:40:57;100825.44;;;6.53;98.44
70314;BME280;57725;47.526;18.986;2023-02-28T15:46:08;100819.34;;;6.54;98.55
70314;BME280;57725;47.526;18.986;2023-02-28T15:48:51;100812.41;;;6.55;98.38
70314;BME280;57725;47.526;18.986;2023-02-28T15:51:24;100817.63;;;6.55;98.93
70314;BME280;57725;47.526;18.986;2023-02-28T15:59:29;100811.53;;;6.56;98.63
70314;BME280;57725;47.526;18.986;2023-02-28T16:02:16;100806.34;;;6.56;98.31
70314;BME280;57725;47.526;18.986;2023-02-28T16:05:01;100813.28;;;6.57;98.57
70314;BME280;57725;47.526;18.986;2023-02-28T16:07:27;100811.53;;;6.58;98.34
70314;BME280;57725;47.526;18.986;2023-02-28T16:09:55;100815.88;;;6.57;98.65
70314;BME280;57725;47.526;18.986;2023-02-28T16:12:25;100822.75;;;6.58;98.84
70314;BME280;57725;47.526;18.986;2023-02-28T16:14:52;100826.22;;;6.59;98.64
70314;BME280;57725;47.526;18.986;2023-02-28T16:17:23;100830.53;;;6.60;98.55